Time;durP1;ratioP1;P1;durP2;ratioP2;P2;SDS_P1;SDS_P2;PMS_P1;PMS_P2;Temp;Humidity;BMP_temperature;BMP_pressure;BME280_temperature;BME280_humidity;BME280_pressure;Samples;Min_cycle;Max_cycle;Signal;HPM_P1;HPM_P2
2022/10/09 00:00:42;;;;;;;3.33;2.17;;;;;;;17.30;46.18;99089.94;5056946;28;20032;-75
2022/10/09 00:03:08;;;;;;;3.33;2.33;;;;;;;17.28;45.71;99089.22;5056217;28;20086;-74
2022/10/09 00:05:33;;;;;;;3.83;2.38;;;;;;;17.28;46.10;99083.13;5056138;28;20029;-75
2022/10/09 00:07:59;;;;;;;4.75;2.70;;;;;;;17.25;46.19;99078.16;5056226;28;20036;-74
2022/10/09 00:10:24;;;;;;;3.92;2.30;;;;;;;17.21;46.17;99074.19;5039547;28;20032;-74
2022/10/09 00:12:50;;;;;;;3.88;2.17;;;;;;;17.21;46.35;99071.53;5055913;28;20035;-74
2022/10/09 00:15:15;;;;;;;4.75;2.25;;;;;;;17.18;46.28;99068.22;5072323;28;20039;-75
2022/10/09 00:17:41;;;;;;;5.05;2.42;;;;;;;17.13;46.33;99059.94;5072363;28;20048;-73
2022/10/09 00:20:07;;;;;;;4.75;2.20;;;;;;;17.18;46.54;99068.22;5039315;28;20094;-73
2022/10/09 00:22:32;;;;;;;3.10;2.35;;;;;;;17.12;46.50;99065.34;5072738;28;20115;-74
2022/10/09 00:24:58;;;;;;;3.30;2.55;;;;;;;17.14;46.47;99073.94;5052058;28;20485;-73
2022/10/09 00:27:23;;;;;;;5.72;2.50;;;;;;;17.06;46.67;99058.84;5053406;28;20037;-75
2022/10/09 00:29:49;;;;;;;3.75;2.13;;;;;;;17.11;46.58;99068.97;5035859;28;20033;-74
2022/10/09 00:32:15;;;;;;;3.28;2.47;;;;;;;17.09;46.50;99063.84;5035656;28;20526;-74
2022/10/09 00:34:40;;;;;;;4.28;2.40;;;;;;;17.03;46.56;99058.34;5019257;28;20090;-74
2022/10/09 00:37:06;;;;;;;4.82;2.40;;;;;;;17.09;46.95;99063.84;5052703;28;20036;-72
2022/10/09 00:39:31;;;;;;;3.72;2.30;;;;;;;17.09;46.69;99063.84;5052358;28;20029;-73
2022/10/09 00:41:56;;;;;;;3.13;2.40;;;;;;;17.07;46.77;99054.44;5035512;28;20041;-73
2022/10/09 00:44:55;;;;;;;4.50;2.58;;;;;;;17.03;46.94;99063.63;5052980;28;20052;-74
2022/10/09 00:47:37;;;;;;;3.80;2.72;;;;;;;17.02;46.88;99062.78;5051729;28;20055;-74
2022/10/09 00:50:07;;;;;;;4.30;2.53;;;;;;;17.02;46.80;99057.53;5053120;28;20021;-73
2022/10/09 00:52:32;;;;;;;3.80;2.42;;;;;;;16.99;47.04;99055.19;5052936;28;20037;-74
2022/10/09 00:54:58;;;;;;;4.07;2.60;;;;;;;16.95;47.01;99052.03;5035884;28;20405;-74
2022/10/09 00:57:23;;;;;;;8.23;2.63;;;;;;;16.98;47.10;99061.44;5035147;28;20037;-73
2022/10/09 00:59:49;;;;;;;4.07;2.90;;;;;;;16.96;47.11;99058.94;5051766;28;20122;-73
2022/10/09 01:02:15;;;;;;;5.13;2.78;;;;;;;16.91;47.26;99049.84;5035058;28;20035;-74
2022/10/09 01:04:40;;;;;;;3.70;2.42;;;;;;;16.90;47.19;99050.81;5035245;28;20033;-73
2022/10/09 01:07:31;;;;;;;5.88;2.50;;;;;;;16.85;47.37;99051.22;5035095;28;20098;-73
2022/10/09 01:09:59;;;;;;;3.58;2.20;;;;;;;16.89;47.23;99057.03;5052038;28;20076;-73
2022/10/09 01:12:50;;;;;;;4.85;2.45;;;;;;;16.87;47.56;99056.38;5052840;28;20025;-73
2022/10/09 01:15:21;;;;;;;4.78;2.42;;;;;;;16.80;47.47;99061.41;5052721;28;20061;-73
2022/10/09 01:18:02;;;;;;;4.50;2.53;;;;;;;16.76;47.38;99050.31;5035066;28;20052;-74
2022/10/09 01:20:49;;;;;;;4.90;2.60;;;;;;;16.76;47.36;99050.31;5051936;28;20484;-73
2022/10/09 01:23:39;;;;;;;5.28;2.63;;;;;;;16.79;47.22;99057.09;5051952;28;20041;-74
2022/10/09 01:26:41;;;;;;;4.88;2.30;;;;;;;16.79;47.17;99057.09;5052659;28;20104;-76
2022/10/09 01:29:08;;;;;;;4.80;2.38;;;;;;;16.72;47.11;99048.94;5052608;28;20389;-73
2022/10/09 01:31:36;;;;;;;4.80;2.50;;;;;;;16.80;47.19;99054.31;5034664;28;20032;-73
2022/10/09 01:34:02;;;;;;;3.90;2.45;;;;;;;16.78;47.01;99061.53;5018273;28;20472;-74
2022/10/09 01:36:28;;;;;;;4.40;2.28;;;;;;;16.77;46.68;99051.97;5037152;28;20039;-74
2022/10/09 01:38:54;;;;;;;6.53;2.15;;;;;;;16.83;46.90;99051.38;5038246;28;20047;-74
2022/10/09 01:41:20;;;;;;;9.52;2.72;;;;;;;16.85;46.68;99055.66;5053998;28;20037;-74
2022/10/09 01:43:45;;;;;;;3.63;2.40;;;;;;;16.75;46.84;99048.66;5054272;28;20032;-73
2022/10/09 01:46:18;;;;;;;5.70;2.50;;;;;;;16.77;46.63;99048.50;5071020;28;20458;-73
2022/10/09 01:49:04;;;;;;;3.70;2.50;;;;;;;16.80;46.62;99059.56;5071014;28;20464;-73
2022/10/09 01:51:52;;;;;;;5.30;2.60;;;;;;;16.73;46.70;99041.88;5055951;28;20044;-75
2022/10/09 01:54:22;;;;;;;5.50;2.50;;;;;;;16.72;46.67;99042.84;5048838;28;20045;-74
2022/10/09 01:56:48;;;;;;;6.22;2.28;;;;;;;16.80;46.43;99053.47;5036428;28;20037;-73
2022/10/09 01:59:14;;;;;;;3.92;2.45;;;;;;;16.85;46.35;99059.13;5036679;28;20035;-74
2022/10/09 02:01:41;;;;;;;4.32;2.15;;;;;;;16.84;46.43;99052.22;5036571;28;20090;-73
2022/10/09 02:04:07;;;;;;;3.92;2.40;;;;;;;16.85;46.74;99048.59;5053728;28;20053;-72
2022/10/09 02:06:33;;;;;;;6.13;2.75;;;;;;;16.81;46.90;99039.34;5036281;28;20039;-73
2022/10/09 02:08:58;;;;;;;4.95;2.75;;;;;;;16.80;46.94;99048.22;5036347;28;20052;-73
2022/10/09 02:11:25;;;;;;;4.28;2.67;;;;;;;16.81;47.22;99044.59;5036026;28;20044;-73
2022/10/09 02:13:51;;;;;;;4.15;2.50;;;;;;;16.79;47.32;99046.53;5036719;28;20098;-73
2022/10/09 02:16:21;;;;;;;6.57;2.58;;;;;;;16.77;47.26;99045.88;5020048;28;20039;-73
2022/10/09 02:18:56;;;;;;;5.18;2.88;;;;;;;16.76;47.44;99049.47;5036312;28;20046;-72
2022/10/09 02:21:26;;;;;;;3.78;2.45;;;;;;;16.75;47.23;99050.47;5036364;28;20037;-73
2022/10/09 02:23:51;;;;;;;3.53;2.22;;;;;;;16.69;47.54;99040.53;5036390;28;20032;-74
2022/10/09 02:26:17;;;;;;;3.90;2.45;;;;;;;16.67;47.40;99037.19;5037072;28;20040;-75
2022/10/09 02:28:42;;;;;;;3.53;2.55;;;;;;;16.68;47.72;99044.13;5044369;28;20476;-75
2022/10/09 02:31:15;;;;;;;3.58;2.13;;;;;;;16.64;47.59;99041.78;5071042;28;20036;-75
2022/10/09 02:33:40;;;;;;;3.45;2.45;;;;;;;16.67;47.57;99053.84;5054663;28;20047;-74
2022/10/09 02:36:06;;;;;;;3.92;2.47;;;;;;;16.66;47.57;99049.53;5056726;28;20483;-73
2022/10/09 02:38:31;;;;;;;3.70;2.20;;;;;;;16.66;47.62;99052.19;5075891;28;20029;-73
2022/10/09 02:41:00;;;;;;;2.67;2.25;;;;;;;16.63;47.63;99052.47;5075602;28;20039;-73
2022/10/09 02:43:26;;;;;;;3.92;2.38;;;;;;;16.63;47.44;99055.97;5058097;28;20078;-74
2022/10/09 02:45:51;;;;;;;3.25;2.28;;;;;;;16.55;47.36;99047.13;5058061;28;20048;-74
2022/10/09 02:48:17;;;;;;;7.30;2.90;;;;;;;16.61;47.33;99054.44;5057544;28;20032;-74
2022/10/09 02:50:42;;;;;;;2.97;2.17;;;;;;;16.68;47.33;99063.41;5074151;28;20036;-74
2022/10/09 02:53:08;;;;;;;4.75;2.10;;;;;;;16.67;47.06;99053.84;5053654;28;20060;-75
2022/10/09 02:55:35;;;;;;;7.53;2.42;;;;;;;16.73;46.89;99049.78;5037095;28;20041;-74
2022/10/09 02:58:00;;;;;;;6.13;2.20;;;;;;;16.81;46.80;99058.59;5053996;28;20488;-74
2022/10/09 03:00:26;;;;;;;2.47;1.90;;;;;;;16.81;46.64;99048.06;5037414;28;20108;-74
2022/10/09 03:02:51;;;;;;;4.13;2.10;;;;;;;16.91;46.55;99053.28;5037326;28;20032;-73
2022/10/09 03:05:17;;;;;;;5.50;2.30;;;;;;;16.91;46.31;99047.19;5054409;28;20479;-74
2022/10/09 03:07:49;;;;;;;3.63;2.17;;;;;;;16.94;46.15;99046.91;5037212;28;20029;-74
2022/10/09 03:10:18;;;;;;;3.85;2.10;;;;;;;17.02;46.10;99056.69;5038451;28;20131;-73
2022/10/09 03:12:44;;;;;;;7.22;2.33;;;;;;;17.04;45.88;99058.19;5053583;28;20052;-74
2022/10/09 03:15:10;;;;;;;3.38;2.10;;;;;;;17.03;45.87;99053.06;5037337;28;20043;-73
2022/10/09 03:17:35;;;;;;;2.60;1.85;;;;;;;17.07;45.64;99054.44;5039100;28;20431;-74
2022/10/09 03:20:01;;;;;;;4.07;2.17;;;;;;;17.09;45.53;99060.38;5057222;28;20040;-73
2022/10/09 03:22:27;;;;;;;3.17;2.28;;;;;;;17.08;45.47;99064.84;5073577;28;20471;-73
2022/10/09 03:24:53;;;;;;;4.15;2.20;;;;;;;17.08;45.43;99064.84;5057153;28;20028;-73
2022/10/09 03:27:18;;;;;;;5.47;2.38;;;;;;;17.05;45.19;99059.84;5056792;28;20066;-69
2022/10/09 03:29:44;;;;;;;8.43;2.45;;;;;;;17.05;45.36;99072.22;5056835;28;20036;-74
2022/10/09 03:32:09;;;;;;;3.78;2.33;;;;;;;17.00;45.35;99059.50;5074789;28;20039;-73
2022/10/09 03:34:35;;;;;;;4.15;2.60;;;;;;;17.00;45.38;99067.41;5056725;28;20040;-72
2022/10/09 03:37:00;;;;;;;7.70;2.67;;;;;;;16.92;45.56;99060.22;5073203;28;20427;-73
2022/10/09 03:39:26;;;;;;;3.67;2.60;;;;;;;16.87;45.90;99061.66;5056857;28;20025;-73
2022/10/09 03:41:51;;;;;;;4.60;2.90;;;;;;;16.93;45.86;99079.50;5073395;28;20036;-75
2022/10/09 03:44:17;;;;;;;4.57;2.65;;;;;;;16.87;45.86;99065.09;5056942;28;20507;-73
2022/10/09 03:46:42;;;;;;;5.30;2.70;;;;;;;16.91;45.66;99063.84;5055862;28;20102;-74
2022/10/09 03:49:08;;;;;;;4.03;2.72;;;;;;;16.95;45.73;99074.91;5056314;28;20028;-73
2022/10/09 03:51:33;;;;;;;6.20;2.90;;;;;;;16.95;45.64;99067.00;5056578;28;20064;-74
2022/10/09 03:53:59;;;;;;;3.97;2.60;;;;;;;16.95;45.83;99074.91;5066737;28;20017;-74
2022/10/09 03:56:24;;;;;;;6.00;2.90;;;;;;;16.95;45.86;99085.44;5020418;28;20076;-74
2022/10/09 03:58:50;;;;;;;6.10;2.45;;;;;;;16.93;45.99;99079.50;5054248;28;20040;-74
2022/10/09 04:01:15;;;;;;;4.47;2.75;;;;;;;16.89;46.03;99075.50;5053131;28;20060;-75
2022/10/09 04:03:40;;;;;;;3.85;2.53;;;;;;;16.93;45.87;99072.41;5036555;28;20048;-74
2022/10/09 04:06:06;;;;;;;3.60;2.28;;;;;;;16.96;45.85;99073.94;5019572;28;20037;-73
2022/10/09 04:08:32;;;;;;;4.70;2.85;;;;;;;17.00;45.88;99083.22;5035938;28;20049;-72
2022/10/09 04:10:58;;;;;;;4.82;2.30;;;;;;;16.99;45.73;99081.56;5036234;28;20032;-73
2022/10/09 04:13:23;;;;;;;7.35;2.22;;;;;;;16.98;45.92;99071.97;5035848;28;20498;-77
2022/10/09 04:15:50;;;;;;;5.28;2.50;;;;;;;17.03;45.87;99067.09;5019661;28;20033;-74
2022/10/09 04:18:16;;;;;;;4.85;2.00;;;;;;;17.08;45.55;99075.38;5035947;28;20569;-74
2022/10/09 04:20:51;;;;;;;4.72;2.17;;;;;;;17.08;45.53;99078.03;5019603;28;20025;-74
2022/10/09 04:23:21;;;;;;;5.20;2.28;;;;;;;17.14;45.34;99084.47;5019676;28;20578;-76
2022/10/09 04:25:47;;;;;;;3.20;2.00;;;;;;;17.20;45.35;99091.81;5056545;28;20032;-74
2022/10/09 04:28:12;;;;;;;3.55;2.10;;;;;;;17.27;45.32;99089.41;5056017;28;20036;-74
2022/10/09 04:30:38;;;;;;;5.38;2.22;;;;;;;17.45;44.79;99087.56;5073010;28;20513;-74
2022/10/09 04:33:03;;;;;;;4.80;2.30;;;;;;;17.71;44.15;99079.69;5055797;28;20082;-75
2022/10/09 04:35:29;;;;;;;5.53;2.50;;;;;;;18.02;43.51;99081.06;5049950;28;20040;-75
2022/10/09 04:37:54;;;;;;;7.97;2.85;;;;;;;18.38;43.11;99091.47;5062741;28;20040;-75
2022/10/09 04:40:20;;;;;;;5.90;2.30;;;;;;;18.70;42.20;99088.13;5043897;28;20496;-76
2022/10/09 04:42:45;;;;;;;3.10;2.20;;;;;;;19.12;41.35;99087.25;5028702;28;20056;-75
2022/10/09 04:45:11;;;;;;;3.53;2.28;;;;;;;19.41;40.82;99082.47;5048804;28;20056;-75
2022/10/09 04:47:36;;;;;;;5.30;2.58;;;;;;;19.85;40.01;99080.31;5040130;28;20035;-76
2022/10/09 04:50:02;;;;;;;11.32;3.58;;;;;;;20.23;39.11;99077.06;5035015;28;20064;-75
2022/10/09 04:52:28;;;;;;;8.32;3.20;;;;;;;20.09;39.36;99091.84;5051189;28;20047;-73
2022/10/09 04:54:53;;;;;;;5.72;2.92;;;;;;;19.99;43.09;99091.22;5046538;28;20525;-90
2022/10/09 04:57:19;;;;;;;9.70;2.13;;;;;;;20.57;47.18;99095.34;5028743;28;20028;-74
2022/10/09 04:59:45;;;;;;;20.15;2.45;;;;;;;21.09;44.86;99096.56;5029022;28;20044;-72
2022/10/09 05:02:10;;;;;;;10.73;2.65;;;;;;;21.45;43.65;99101.28;5059588;28;20110;-71
2022/10/09 05:04:37;;;;;;;5.72;2.55;;;;;;;22.02;41.28;99097.28;5060579;28;20132;-74
2022/10/09 05:07:02;;;;;;;8.00;2.95;;;;;;;22.37;40.34;99102.91;5029602;28;20039;-76
2022/10/09 05:09:28;;;;;;;12.50;3.33;;;;;;;22.74;38.82;99116.28;5041842;28;20458;-71
2022/10/09 05:11:53;;;;;;;6.25;3.30;;;;;;;23.06;38.33;99115.00;5043156;28;20045;-75
2022/10/09 05:14:19;;;;;;;9.10;3.45;;;;;;;23.43;37.53;99112.31;5027509;28;20473;-77
2022/10/09 05:16:44;;;;;;;7.18;3.70;;;;;;;23.84;36.37;99115.13;5057943;28;20061;-81
2022/10/09 05:19:11;;;;;;;8.48;3.35;;;;;;;24.08;35.58;99110.38;5044656;28;20045;-72
2022/10/09 05:21:36;;;;;;;4.97;3.10;;;;;;;24.34;35.63;99115.03;5060825;28;20042;-78
2022/10/09 05:24:02;;;;;;;7.13;3.28;;;;;;;24.79;35.12;99119.16;5027431;28;20049;-75
2022/10/09 05:26:27;;;;;;;7.82;2.72;;;;;;;25.32;33.72;99111.31;5027874;28;20033;-77
2022/10/09 05:28:53;;;;;;;9.15;2.80;;;;;;;25.79;32.94;99117.50;5043629;28;20033;-73
2022/10/09 05:31:24;;;;;;;9.38;2.65;;;;;;;26.28;31.31;99118.06;5044338;28;20106;-72
2022/10/09 05:33:50;;;;;;;6.65;2.58;;;;;;;26.75;29.79;99117.09;5024011;28;20029;-74
2022/10/09 05:36:15;;;;;;;7.15;2.85;;;;;;;27.14;30.07;99123.28;5047769;28;20101;-81
2022/10/09 05:38:41;;;;;;;8.75;2.60;;;;;;;27.47;28.62;99123.09;5041718;28;20048;-74
2022/10/09 05:41:07;;;;;;;11.52;2.78;;;;;;;27.71;28.24;99107.22;5028806;28;20086;-73
2022/10/09 05:43:34;;;;;;;9.50;3.05;;;;;;;28.19;27.68;99130.72;5058017;28;20045;-73
2022/10/09 05:46:07;;;;;;;9.57;3.38;;;;;;;28.43;27.11;99122.81;5058347;28;20073;-72
2022/10/09 05:48:33;;;;;;;8.25;3.15;;;;;;;28.56;26.43;99124.53;5046007;28;20024;-73
2022/10/09 05:51:25;;;;;;;12.57;3.08;;;;;;;28.54;26.61;99130.13;5058409;28;20044;-72
2022/10/09 05:53:51;;;;;;;10.25;3.38;;;;;;;28.59;27.62;99129.47;5060658;28;20029;-76
2022/10/09 05:56:24;;;;;;;9.32;3.45;;;;;;;28.47;27.45;99132.09;5044737;28;20041;-78
2022/10/09 05:58:54;;;;;;;11.50;3.78;;;;;;;28.33;27.18;99131.41;5026574;28;20032;-74
2022/10/09 06:01:20;;;;;;;24.35;4.32;;;;;;;28.15;25.52;99135.72;5028068;28;20028;-71
2022/10/09 06:03:52;;;;;;;11.02;4.47;;;;;;;27.82;25.90;99149.41;5033751;28;20040;-74
2022/10/09 06:06:18;;;;;;;12.35;4.43;;;;;;;27.85;27.73;99153.50;5043147;28;20407;-73
2022/10/09 06:08:44;;;;;;;10.00;4.82;;;;;;;27.58;26.45;99148.38;5040729;28;20032;-70
2022/10/09 06:11:16;;;;;;;13.43;4.68;;;;;;;27.22;26.54;99147.97;5059447;28;20093;-72
2022/10/09 06:13:42;;;;;;;15.32;5.20;;;;;;;27.27;27.53;99150.81;5058207;28;20104;-71
2022/10/09 06:16:10;;;;;;;14.23;4.55;;;;;;;27.33;27.04;99148.34;5022912;28;20033;-73
2022/10/09 06:18:36;;;;;;;16.10;4.32;;;;;;;27.78;31.21;99159.78;5045169;28;20052;-71
2022/10/09 06:21:02;;;;;;;10.43;3.78;;;;;;;28.28;28.50;99164.28;5040828;28;20492;-69
2022/10/09 06:23:27;;;;;;;9.82;3.65;;;;;;;28.84;26.47;99164.31;5028834;28;20035;-74
2022/10/09 06:25:59;;;;;;;13.15;3.80;;;;;;;29.12;24.73;99160.22;5041774;28;20398;-74
2022/10/09 06:28:24;;;;;;;12.32;4.07;;;;;;;29.12;24.57;99160.22;5041747;28;20033;-71
2022/10/09 06:30:50;;;;;;;11.98;4.00;;;;;;;29.65;25.81;99164.84;5042591;28;20032;-78
2022/10/09 06:33:15;;;;;;;11.88;4.50;;;;;;;30.34;25.43;99171.56;5040528;28;20087;-77
2022/10/09 06:35:41;;;;;;;13.80;5.03;;;;;;;31.03;24.85;99177.09;5026469;28;20048;-77
2022/10/09 06:38:06;;;;;;;11.43;5.15;;;;;;;31.51;24.14;99183.88;5044314;28;20087;-78
2022/10/09 06:40:36;;;;;;;8.80;5.15;;;;;;;31.96;23.59;99179.50;5043987;28;20079;-77
2022/10/09 06:43:02;;;;;;;11.40;5.20;;;;;;;32.35;23.48;99176.84;5027011;28;20483;-76
2022/10/09 06:45:28;;;;;;;17.60;5.63;;;;;;;32.78;22.28;99174.44;5040426;28;20036;-74
2022/10/09 06:47:53;;;;;;;8.02;5.40;;;;;;;33.20;21.90;99181.97;5058018;28;20021;-75
2022/10/09 06:50:19;;;;;;;10.23;4.97;;;;;;;33.44;21.36;99173.53;5061871;28;20048;-81
2022/10/09 06:52:44;;;;;;;12.35;6.20;;;;;;;33.81;21.56;99176.31;5042235;28;20041;-83
2022/10/09 06:55:10;;;;;;;10.70;5.18;;;;;;;34.26;21.31;99185.03;5057650;28;20075;-80
2022/10/09 06:57:35;;;;;;;9.73;4.43;;;;;;;34.67;20.96;99187.94;5058901;28;20063;-81
2022/10/09 07:00:01;;;;;;;9.13;4.47;;;;;;;34.88;21.12;99180.72;5041954;28;20041;-81
2022/10/09 07:02:27;;;;;;;11.07;4.72;;;;;;;35.00;19.75;99185.91;5044131;28;20085;-76
2022/10/09 07:04:52;;;;;;;13.57;4.13;;;;;;;35.24;19.89;99196.28;5058301;28;20042;-78
2022/10/09 07:07:17;;;;;;;8.93;4.20;;;;;;;35.20;19.37;99187.84;5041610;28;20120;-79
2022/10/09 07:09:43;;;;;;;12.35;4.05;;;;;;;35.31;18.82;99188.69;5042441;28;20458;-81
2022/10/09 07:12:08;;;;;;;9.00;3.97;;;;;;;35.23;19.22;99191.91;5042764;28;20024;-87
2022/10/09 07:14:34;;;;;;;24.13;4.28;;;;;;;35.05;20.18;99199.47;5055336;28;20068;-77
2022/10/09 07:16:59;;;;;;;31.42;4.60;;;;;;;34.91;20.59;99193.72;5060202;28;20519;-75
2022/10/09 07:19:25;;;;;;;19.10;4.47;;;;;;;34.80;20.29;99200.22;5063057;28;20053;-75
2022/10/09 07:21:51;;;;;;;10.43;4.10;;;;;;;34.81;20.73;99201.84;5024169;28;20033;-77
2022/10/09 07:24:19;;;;;;;18.02;4.05;;;;;;;34.88;20.56;99198.88;5039109;28;20052;-85
2022/10/09 07:26:44;;;;;;;17.75;3.90;;;;;;;35.01;20.34;99203.78;5049655;28;20562;-75
2022/10/09 07:29:13;;;;;;;14.80;4.30;;;;;;;35.11;20.51;99206.53;5045473;28;20033;-75
2022/10/09 07:31:38;;;;;;;13.15;3.33;;;;;;;34.95;19.14;99199.47;5034244;28;20060;-74
2022/10/09 07:34:05;;;;;;;10.48;3.33;;;;;;;34.68;18.67;99194.16;5030227;28;20033;-81
2022/10/09 07:36:31;;;;;;;17.83;3.00;;;;;;;34.45;19.18;99201.66;5043562;28;20075;-81
2022/10/09 07:38:56;;;;;;;7.70;3.03;;;;;;;34.40;18.46;99210.56;5036605;28;20048;-81
2022/10/09 07:41:24;;;;;;;8.38;3.13;;;;;;;34.15;18.89;99208.50;5051831;28;20032;-80
2022/10/09 07:43:51;;;;;;;8.52;3.22;;;;;;;34.06;19.29;99212.75;5059310;28;20508;-81
2022/10/09 07:46:18;;;;;;;9.43;3.00;;;;;;;34.02;19.37;99201.63;5035129;28;20455;-84
2022/10/09 07:48:45;;;;;;;11.38;2.88;;;;;;;34.11;18.93;99201.16;5031675;28;20029;-80
2022/10/09 07:51:26;;;;;;;7.85;2.47;;;;;;;34.30;18.84;99198.84;5047565;28;20163;-84
2022/10/09 07:53:52;;;;;;;8.85;2.80;;;;;;;34.52;18.57;99204.13;5041621;28;20489;-83
2022/10/09 07:56:19;;;;;;;10.25;2.55;;;;;;;34.70;18.77;99200.97;5046004;28;20120;-81
2022/10/09 07:58:52;;;;;;;6.80;2.45;;;;;;;34.81;18.30;99195.59;5048306;28;20112;-80
2022/10/09 08:01:18;;;;;;;7.47;2.80;;;;;;;34.76;18.00;99199.94;5046525;28;20060;-82
2022/10/09 08:03:44;;;;;;;6.07;2.70;;;;;;;34.88;18.45;99202.41;5030685;28;20508;-80
2022/10/09 08:06:10;;;;;;;6.97;2.50;;;;;;;35.00;18.14;99202.19;5032186;28;20032;-81
2022/10/09 08:08:36;;;;;;;5.25;2.22;;;;;;;35.17;18.23;99199.25;5044846;28;20123;-82
2022/10/09 08:11:13;;;;;;;4.80;2.28;;;;;;;35.31;18.20;99192.25;5044819;28;20103;-81
2022/10/09 08:13:38;;;;;;;6.20;2.22;;;;;;;35.40;17.38;99192.50;5030264;28;20033;-81
2022/10/09 08:16:04;;;;;;;6.00;2.03;;;;;;;35.40;16.97;99195.22;5027775;28;20112;-81
2022/10/09 08:18:30;;;;;;;9.20;2.90;;;;;;;35.41;17.17;99186.00;5029228;28;20044;-80
2022/10/09 08:20:59;;;;;;;6.95;3.30;;;;;;;35.38;17.53;99194.69;5045009;28;20520;-81
2022/10/09 08:23:25;;;;;;;8.80;3.78;;;;;;;35.37;17.30;99197.66;5031109;28;20041;-80
2022/10/09 08:25:50;;;;;;;6.35;3.53;;;;;;;35.37;17.85;99194.97;5043386;28;20090;-81
2022/10/09 08:28:16;;;;;;;11.25;3.88;;;;;;;35.40;18.24;99189.00;5050423;28;20397;-81
2022/10/09 08:30:41;;;;;;;7.05;2.85;;;;;;;35.47;18.08;99182.22;5036750;28;20047;-81
2022/10/09 08:33:07;;;;;;;6.05;2.42;;;;;;;35.55;16.96;99180.88;5042250;28;20481;-85
2022/10/09 08:35:32;;;;;;;5.65;2.30;;;;;;;35.60;16.47;99189.00;5043576;28;20025;-81
2022/10/09 08:37:58;;;;;;;5.63;2.00;;;;;;;35.41;16.73;99191.44;5046272;28;20064;-83
2022/10/09 08:40:33;;;;;;;4.65;2.20;;;;;;;35.27;16.99;99183.00;5029392;28;20028;-82
2022/10/09 08:43:05;;;;;;;5.53;2.10;;;;;;;35.16;17.24;99194.91;5030630;28;20039;-81
2022/10/09 08:45:32;;;;;;;7.05;2.00;;;;;;;35.31;17.20;99194.13;5026681;28;20112;-83
2022/10/09 08:48:03;;;;;;;3.92;2.03;;;;;;;35.20;17.23;99171.56;5030606;28;20033;-82
2022/10/09 08:50:34;;;;;;;6.63;2.55;;;;;;;35.32;17.65;99190.34;5029999;28;20463;-82
2022/10/09 08:53:02;;;;;;;5.75;1.83;;;;;;;35.32;17.55;99184.91;5046859;28;20041;-82
2022/10/09 08:55:44;;;;;;;5.00;1.88;;;;;;;35.36;17.19;99185.19;5046107;28;20058;-82
2022/10/09 08:58:15;;;;;;;5.63;1.98;;;;;;;35.44;16.83;99188.19;5062081;28;20494;-81
2022/10/09 09:00:49;;;;;;;4.90;2.08;;;;;;;35.37;17.54;99182.19;5057253;28;20037;-84
2022/10/09 09:04:05;;;;;;;5.13;2.33;;;;;;;35.54;18.87;99181.13;5043591;28;20071;-81
2022/10/09 09:06:39;;;;;;;5.50;2.10;;;;;;;35.60;17.85;99186.28;5058417;28;20055;-73
2022/10/09 09:09:26;;;;;;;7.95;2.20;;;;;;;35.75;17.92;99187.38;5058427;28;20036;-73
2022/10/09 09:12:13;;;;;;;10.90;2.65;;;;;;;35.81;18.49;99176.25;5061211;28;20033;-77
2022/10/09 09:14:44;;;;;;;5.80;2.10;;;;;;;35.90;17.16;99175.69;5042156;28;20041;-77
2022/10/09 09:17:36;;;;;;;5.47;2.28;;;;;;;36.00;17.96;99181.94;5031772;28;20127;-75
2022/10/09 09:20:27;;;;;;;8.10;2.15;;;;;;;36.09;17.47;99184.09;5051010;28;20459;-76
2022/10/09 09:22:53;;;;;;;7.80;2.30;;;;;;;36.23;17.72;99177.81;4978838;28;20186;-75
2022/10/09 09:25:22;;;;;;;9.25;2.30;;;;;;;35.44;18.78;99173.78;4988067;28;20117;-79
2022/10/09 09:27:47;;;;;;;6.97;2.22;;;;;;;34.89;19.13;99176.91;4978168;28;20509;-83
2022/10/09 09:30:31;;;;;;;6.00;2.10;;;;;;;35.06;17.99;99173.16;4989743;28;20082;-85
2022/10/09 09:32:59;;;;;;;3.85;2.20;;;;;;;35.09;19.08;99178.88;5000958;28;20057;-83
2022/10/09 09:35:57;;;;;;;5.03;1.90;;;;;;;34.87;19.13;99175.53;4991114;28;20038;-81
2022/10/09 09:38:22;;;;;;;6.60;2.30;;;;;;;34.90;18.79;99180.44;4914321;29;20032;-81
2022/10/09 09:40:49;;;;;;;5.30;2.00;;;;;;;35.04;19.55;99175.34;4898419;29;20043;-81
2022/10/09 09:43:19;;;;;;;7.30;3.08;;;;;;;35.15;19.09;99183.25;4900126;29;20180;-78
2022/10/09 09:45:45;;;;;;;10.65;2.67;;;;;;;35.24;18.56;99172.66;4923876;29;20051;-76
2022/10/09 09:48:20;;;;;;;22.98;3.00;;;;;;;34.57;19.47;99169.72;4884529;29;20039;-80
2022/10/09 09:50:46;;;;;;;7.60;2.15;;;;;;;34.18;19.02;99164.63;4932269;29;20047;-69
2022/10/09 09:53:20;;;;;;;23.75;3.08;;;;;;;33.79;20.13;99172.22;4896937;29;20412;-73
2022/10/09 09:55:50;;;;;;;23.80;3.15;;;;;;;33.64;20.55;99159.38;4930969;29;20051;-72
2022/10/09 09:58:16;;;;;;;9.30;2.25;;;;;;;34.23;19.86;99170.09;4903052;29;20123;-75
2022/10/09 10:00:55;;;;;;;23.50;2.72;;;;;;;34.60;19.61;99160.25;4951072;28;20212;-76
2022/10/09 10:03:21;;;;;;;15.90;2.35;;;;;;;34.88;19.73;99166.34;4951339;28;20030;-74
2022/10/09 10:05:46;;;;;;;9.30;2.40;;;;;;;35.01;19.78;99160.41;4944077;28;20068;-73
2022/10/09 10:08:34;;;;;;;18.35;2.67;;;;;;;35.15;19.36;99156.09;4980018;28;20492;-74
2022/10/09 10:11:01;;;;;;;21.77;2.70;;;;;;;35.30;19.46;99159.94;4962767;28;20062;-75
2022/10/09 10:13:36;;;;;;;18.23;2.50;;;;;;;35.40;19.02;99149.09;4956262;28;20031;-75
2022/10/09 10:16:02;;;;;;;31.83;3.58;;;;;;;35.50;19.47;99157.25;5028503;28;20025;-76
2022/10/09 10:18:31;;;;;;;20.30;3.13;;;;;;;35.50;19.24;99150.97;5035997;28;20051;-74
2022/10/09 10:21:12;;;;;;;20.95;2.63;;;;;;;35.61;19.05;99151.81;5017448;28;20029;-74
2022/10/09 10:23:51;;;;;;;17.80;2.65;;;;;;;35.74;19.13;99145.00;5033665;28;20056;-74
2022/10/09 10:26:27;;;;;;;14.70;2.88;;;;;;;35.70;19.27;99139.31;5050298;28;20047;-74
2022/10/09 10:29:18;;;;;;;18.47;2.50;;;;;;;35.74;19.15;99143.13;5050169;28;20024;-73
2022/10/09 10:31:51;;;;;;;9.35;2.67;;;;;;;35.63;19.03;99142.31;5033335;28;20521;-73
2022/10/09 10:34:21;;;;;;;12.40;2.30;;;;;;;35.62;18.58;99129.00;5050135;28;20037;-73
2022/10/09 10:36:46;;;;;;;9.50;2.47;;;;;;;35.63;18.54;99131.44;5017193;28;20115;-82
2022/10/09 10:39:19;;;;;;;9.02;1.80;;;;;;;35.60;19.11;99132.00;5033639;28;20025;-74
2022/10/09 10:41:46;;;;;;;11.38;2.13;;;;;;;35.54;18.81;99132.28;5019015;28;20040;-73
2022/10/09 10:44:22;;;;;;;11.32;2.08;;;;;;;35.46;19.32;99128.22;5070848;28;20020;-74
2022/10/09 10:46:53;;;;;;;7.53;2.10;;;;;;;35.21;18.89;99118.94;5054328;28;20048;-75
2022/10/09 10:49:20;;;;;;;6.20;2.10;;;;;;;35.07;18.47;99104.28;5037026;28;20097;-73
2022/10/09 10:52:10;;;;;;;6.78;2.35;;;;;;;34.86;18.93;99106.16;5053232;28;20412;-74
2022/10/09 10:54:39;;;;;;;10.77;2.30;;;;;;;34.60;19.50;99103.31;5071085;28;20423;-75
2022/10/09 10:57:20;;;;;;;5.82;2.10;;;;;;;34.31;19.31;99105.66;5073346;28;20029;-75
2022/10/09 11:00:04;;;;;;;4.55;2.00;;;;;;;34.15;19.71;99113.69;5058328;28;20123;-75
2022/10/09 11:02:44;;;;;;;4.22;1.85;;;;;;;33.87;20.25;99106.75;5074216;28;20033;-76
2022/10/09 11:05:24;;;;;;;6.57;3.85;;;;;;;33.67;20.27;99104.72;5075757;28;20025;-75
2022/10/09 11:07:57;;;;;;;8.90;2.80;;;;;;;33.53;20.30;99097.03;5075479;28;20033;-75
2022/10/09 11:10:29;;;;;;;5.30;2.30;;;;;;;33.37;20.87;99098.00;5075652;28;20028;-76
2022/10/09 11:13:23;;;;;;;3.50;1.98;;;;;;;33.25;20.57;99094.63;5075127;28;20384;-72
2022/10/09 11:16:03;;;;;;;4.20;2.00;;;;;;;33.12;21.48;99103.97;5073516;28;20046;-74
2022/10/09 11:19:00;;;;;;;5.47;2.15;;;;;;;32.96;21.23;99093.00;5072809;28;20048;-74
2022/10/09 11:21:40;;;;;;;3.05;2.00;;;;;;;32.85;21.08;99085.88;5073040;28;20036;-74
2022/10/09 11:24:25;;;;;;;7.88;2.20;;;;;;;32.71;21.55;99096.25;5056014;28;20071;-73
2022/10/09 11:27:12;;;;;;;7.95;2.47;;;;;;;32.54;21.84;99071.97;5055814;28;20570;-74
2022/10/09 11:29:43;;;;;;;8.20;3.90;;;;;;;32.43;22.14;99083.75;5056326;28;20044;-73
2022/10/09 11:32:13;;;;;;;5.35;2.78;;;;;;;32.35;22.26;99085.00;5040036;28;20585;-74
2022/10/09 11:34:51;;;;;;;6.80;2.65;;;;;;;32.17;22.79;99078.03;5056345;28;20094;-74
2022/10/09 11:37:19;;;;;;;6.03;2.40;;;;;;;32.02;22.97;99085.91;5039158;28;20021;-74
2022/10/09 11:39:45;;;;;;;5.45;2.53;;;;;;;31.95;22.85;99074.47;5055766;28;20048;-74
2022/10/09 11:42:11;;;;;;;3.97;2.47;;;;;;;31.86;22.93;99072.19;5039285;28;20032;-75